Погода Гуарапуавана 2 недели

Парана, Бразилия

24 июля-06 августа
  • 24июля
    Сегодня
    +11°
    +22°
    Облачно с прояснениями
    ВремяПогодаТемператураВлажностьДавлениеВетер, м/сВероятность осадков
    00:00Облачно с прояснениями+13°C68 %688 мм3.8 м/с5 %
    03:00Облачно с прояснениями+11°C68 %687 мм3.7 м/с5 %
    06:00Облачно с прояснениями+10°C71 %687 мм3.5 м/с5 %
    09:00Облачно с прояснениями+13°C69 %689 мм3.8 м/с5 %
    12:00Небольшая облачность+19°C49 %691 мм3.0 м/с5 %
    15:00Облачно с прояснениями+21°C42 %689 мм2.5 м/с5 %
    18:00Практически безоблачно+17°C74 %688 мм2.2 м/с5 %
    21:00Ясно и безоблачно+13°C81 %687 мм2.6 м/с5 %
  • 25июля
    Четверг
    +12°
    +23°
    Ясно и безоблачно
    ВремяПогодаТемператураВлажностьДавлениеВетер, м/сВероятность осадков
    00:00Ясно и безоблачно+13°C79 %688 мм2.8 м/с5 %
    03:00Ясно и безоблачно+12°C77 %686 мм2.5 м/с5 %
    06:00Ясно и безоблачно+12°C68 %686 мм2.6 м/с5 %
    09:00Ясно и безоблачно+16°C66 %688 мм2.5 м/с5 %
    12:00Ясно и безоблачно+22°C47 %689 мм3.3 м/с5 %
    15:00Ясно и безоблачно+23°C47 %687 мм3.0 м/с5 %
    18:00Ясно и безоблачно+21°C64 %686 мм1.9 м/с5 %
    21:00Ясно и безоблачно+16°C73 %686 мм0.4 м/с5 %
  • 26июля
    Пятница
    +12°
    +23°
    Облачно с прояснениями
    ВремяПогодаТемператураВлажностьДавлениеВетер, м/сВероятность осадков
    00:00Ясно и безоблачно+14°C83 %686 мм1.5 м/с5 %
    03:00Небольшая облачность+13°C80 %685 мм2.2 м/с5 %
    06:00Практически безоблачно+13°C79 %685 мм2.6 м/с5 %
    09:00Облачно с прояснениями+17°C73 %687 мм3.1 м/с5 %
    12:00Облачно с прояснениями+22°C53 %688 мм3.5 м/с5 %
    15:00Облачно с прояснениями+22°C51 %686 мм2.7 м/с5 %
    18:00Небольшая облачность+17°C80 %686 мм2.4 м/с5 %
    21:00Облачно с прояснениями+15°C77 %686 мм2.3 м/с5 %
  • 27июля
    Суббота
    +13°
    +23°
    Небольшая облачность
    ВремяПогодаТемператураВлажностьДавлениеВетер, м/сВероятность осадков
    00:00Облачно с прояснениями+16°C69 %686 мм2.2 м/с4 %
    03:00Облачно с прояснениями+14°C85 %685 мм2.1 м/с8 %
    06:00Практически безоблачно+13°C87 %685 мм2.2 м/с11 %
    09:00Ясно и безоблачно+17°C73 %687 мм2.9 м/с9 %
    12:00Небольшая облачность+22°C50 %688 мм2.7 м/с8 %
    15:00Небольшая облачность+23°C46 %687 мм1.8 м/с22 %
    18:00Облачно с прояснениями+19°C72 %688 мм3.9 м/с17 %
    21:00Пасмурно, ливень+15°C94 %688 мм0.9 м/с16 %
  • 28июля
    Воскресенье
    +13°
    +20°
    Облачно с прояснениями
    ВремяПогодаТемператураВлажностьДавлениеВетер, м/сВероятность осадков
    00:00Небольшая облачность+15°C94 %686 мм2.5 м/с10 %
    03:00Практически безоблачно+15°C86 %686 мм2.5 м/с23 %
    06:00Пасмурно, сплошная облачность+15°C83 %685 мм1.9 м/с27 %
    09:00Пасмурно, сплошная облачность+14°C89 %688 мм3.0 м/с14 %
    12:00Небольшая облачность+17°C80 %687 мм1.7 м/с4 %
    15:00Облачно с прояснениями+19°C70 %686 мм2.4 м/с13 %
    18:00Небольшая облачность+17°C88 %685 мм2.0 м/с11 %
    21:00Облачно с прояснениями+15°C88 %685 мм2.5 м/с23 %
Мы используем cookies
Соглашаюсь